Data for 06/23/2014

Time Sea-Level Adjusted Pressure Absolute Pressure Temperature Relative Humidity Dew Point   
(mb) (inHg) (mb) (inHg) (C) (F) (%) (C) (F)
00:05 1022 30.18 851 25.13 10.9 51.7 71 5.8 42.5
00:10 1022 30.18 851 25.13 10.8 51.4 72 6 42.8
00:15 1022 30.18 851 25.13 10.6 51.1 74 6.3 43.3
00:20 1022 30.18 851 25.13 10.2 50.4 78 6.6 43.9
00:25 1022 30.18 851 25.13 9.9 49.8 78 6.2 43.2
00:30 1022 30.18 851 25.13 9.8 49.7 79 6.3 43.4
00:35 1022 30.18 851 25.13 9.7 49.4 79 6.2 43.1
00:40 1022 30.18 851 25.13 9.7 49.4 77 5.9 42.6
00:45 1022 30.18 851 25.13 9.7 49.5 77 6 42.8
00:50 1022 30.18 851 25.13 9.6 49.3 78 6 42.8
00:55 1022 30.18 851 25.13 9.7 49.4 77 5.8 42.5
01:00 1022 30.18 851 25.13 9.5 49.1 77 5.7 42.2
01:05 1022 30.18 851 25.13 9.3 48.8 78 5.7 42.3
01:10 1022 30.18 851 25.13 9 48.2 80 5.7 42.3
01:15 1022 30.18 851 25.13 8.7 47.6 80 5.4 41.7
01:20 1022 30.18 851 25.13 8.6 47.5 78 5.1 41.2
01:25 1022 30.18 851 25.13 8.7 47.6 77 4.9 40.8
01:30 1022 30.18 851 25.13 8.8 47.8 78 5.1 41.2
01:35 1022 30.18 851 25.13 8.7 47.6 78 5.1 41.3
01:40 1022 30.18 851 25.13 8.4 47 79 4.9 40.8
01:45 1022 30.18 851 25.13 8.2 46.7 78 4.6 40.3
01:50 1022 30.18 851 25.13 8.2 46.7 78 4.7 40.4
01:55 1022 30.18 851 25.13 8.1 46.5 80 4.8 40.6
02:00 1022 30.18 851 25.13 8 46.3 80 4.7 40.4
02:05 1022 30.18 851 25.13 7.8 46 80 4.6 40.2
02:10 1022 30.18 851 25.13 7.8 46 80 4.5 40.1
02:15 1022 30.18 851 25.13 7.6 45.8 81 4.5 40.1
02:20 1022 30.18 851 25.13 7.5 45.4 81 4.4 40
02:25 1022 30.18 851 25.13 7.3 45.2 81 4.3 39.8
02:30 1022 30.18 851 25.13 7.3 45.1 81 4.3 39.7
02:35 1022 30.18 851 25.13 7.1 44.8 82 4.2 39.6
02:40 1022 30.18 851 25.13 7 44.6 82 4.1 39.4
02:45 1022 30.18 851 25.13 7.1 44.7 81 4.1 39.4
02:50 1022 30.18 851 25.13 7 44.6 82 4.1 39.4
02:55 1022 30.18 851 25.13 6.9 44.4 82 4.1 39.4
03:00 1022 30.18 851 25.13 6.7 44 84 4.1 39.4
03:05 1022 30.18 851 25.13 6.3 43.4 85 4.1 39.3
03:10 1022 30.18 851 25.13 6.2 43.2 85 3.9 39
03:15 1022 30.18 851 25.13 6.6 43.9 83 3.9 39
03:20 1022 30.18 851 25.13 6.8 44.3 82 4 39.2
03:25 1022 30.18 851 25.13 6.7 44.1 83 4 39.2
03:30 1022 30.18 851 25.13 6.7 44.1 82 3.9 39
03:35 1022 30.18 851 25.13 6.8 44.2 82 4 39.1
03:40 1022 30.18 851 25.13 6.6 43.9 83 4 39.2
03:45 1022 30.18 851 25.13 6.5 43.7 83 3.8 38.8
03:50 1022 30.18 851 25.13 6.6 43.9 82 3.9 38.9
03:55 1022 30.18 851 25.13 6.6 43.9 82 3.8 38.8
04:00 1022 30.18 851 25.13 6.6 43.9 82 3.7 38.7
04:05 1022 30.18 851 25.13 6.8 44.2 81 3.7 38.6
04:10 1022 30.18 851 25.13 6.9 44.4 80 3.6 38.5
04:15 1022 30.18 851 25.13 7.2 45 78 3.7 38.7
04:20 1022 30.18 851 25.13 7.3 45.1 79 3.8 38.9
04:25 1022 30.18 851 25.13 7.1 44.7 80 3.8 38.8
04:30 1022 30.18 851 25.13 6.9 44.4 80 3.7 38.7
04:35 1022 30.18 851 25.13 6.8 44.2 80 3.7 38.6
04:40 1022 30.18 851 25.13 6.7 44.1 81 3.6 38.6
04:45 1022 30.18 851 25.13 6.8 44.3 81 3.7 38.7
04:50 1022 30.18 851 25.13 6.8 44.2 81 3.7 38.7
04:55 1022 30.18 851 25.13 6.8 44.2 81 3.8 38.8
05:00 1022 30.18 851 25.13 6.9 44.4 80 3.6 38.5
05:05 1022 30.18 851 25.13 7 44.6 79 3.6 38.6
05:10 1022 30.18 851 25.13 7.1 44.7 79 3.7 38.6
05:15 1022 30.18 851 25.13 7.1 44.7 79 3.7 38.7
05:20 1022 30.18 851 25.13 7.2 44.9 79 3.7 38.7
05:25 1022 30.18 852 25.16 7.2 44.9 79 3.8 38.8
05:30 1022 30.18 852 25.16 7.3 45.1 79 3.8 38.9
05:35 1022 30.18 852 25.16 7.4 45.3 79 4 39.1
05:40 1022 30.18 852 25.16 7.5 45.5 78 4 39.2
05:45 1023 30.21 852 25.16 7.7 45.8 78 4 39.3
05:50 1023 30.21 852 25.16 7.9 46.2 77 4.1 39.4
05:55 1023 30.21 852 25.16 8.1 46.6 76 4.1 39.4
06:00 1023 30.21 852 25.16 8.2 46.8 76 4.2 39.5
06:05 1023 30.21 852 25.16 8.5 47.3 75 4.3 39.7
06:10 1023 30.21 852 25.16 8.7 47.7 74 4.4 39.9
06:15 1023 30.21 852 25.16 8.9 48.1 74 4.5 40.1
06:20 1023 30.21 852 25.16 9.2 48.6 72 4.5 40.1
06:25 1023 30.21 852 25.16 9.5 49.1 72 4.7 40.5
06:30 1023 30.21 852 25.16 9.9 49.7 71 4.8 40.7
06:35 1023 30.21 852 25.16 10 50 72 5.1 41.3
06:40 1023 30.21 852 25.16 10.2 50.3 70 4.9 40.9
06:45 1023 30.21 852 25.16 10.6 51 69 5.2 41.4
06:50 1023 30.21 852 25.16 10.9 51.7 67 5 41.1
06:55 1023 30.21 852 25.16 11.2 52.1 66 5.1 41.3
07:00 1023 30.21 852 25.16 11.8 53.3 64 5.3 41.5
07:05 1023 30.21 852 25.16 12.3 54.1 63 5.4 41.8
07:10 1023 30.21 852 25.16 12.6 54.7 60 5.1 41.2
07:15 1023 30.21 852 25.16 13.3 55.9 57 5 41
07:20 1023 30.21 852 25.16 14 57.1 55 5.2 41.4
07:25 1023 30.21 852 25.16 13.8 56.8 56 5.2 41.3
07:30 1023 30.21 852 25.16 14 57.1 56 5.4 41.8
07:35 1023 30.21 852 25.16 14.1 57.3 57 5.7 42.2
07:40 1023 30.21 852 25.16 14.2 57.6 57 5.8 42.4
07:45 1023 30.21 852 25.16 14.2 57.6 57 5.8 42.5
07:50 1023 30.21 852 25.16 14.1 57.4 56 5.4 41.7
07:55 1023 30.21 852 25.16 14.5 58.1 55 5.7 42.3
08:00 1023 30.21 852 25.16 14.3 57.7 57 5.9 42.6
08:05 1023 30.21 852 25.16 13.4 56.2 58 5.5 41.9
08:10 1023 30.21 852 25.16 13.7 56.6 57 5.3 41.5
08:15 1023 30.21 852 25.16 14.6 58.2 54 5.3 41.6
08:20 1023 30.21 852 25.16 15 59 54 5.9 42.7
08:25 1023 30.21 852 25.16 14.6 58.2 55 5.8 42.5
08:30 1023 30.21 852 25.16 14.1 57.3 56 5.5 41.9
08:35 1023 30.21 852 25.16 14.5 58.1 55 5.6 42
08:40 1023 30.21 852 25.16 15 59 53 5.6 42
08:45 1023 30.21 852 25.16 14.9 58.9 55 5.9 42.7
08:50 1023 30.21 852 25.16 15.5 59.9 50 5.3 41.5
08:55 1023 30.21 852 25.16 15.9 60.7 52 6.1 42.9
09:00 1023 30.21 852 25.16 15.4 59.7 53 5.9 42.6
09:05 1023 30.21 852 25.16 15.9 60.6 53 6.5 43.7
09:10 1023 30.21 852 25.16 15.3 59.6 54 6.1 42.9
09:15 1023 30.21 852 25.16 15.8 60.4 54 6.5 43.7
09:20 1023 30.21 852 25.16 16 60.8 52 6.3 43.4
09:25 1023 30.21 852 25.16 16 60.7 54 6.6 43.9
09:30 1023 30.21 852 25.16 15.8 60.5 54 6.7 44
09:35 1023 30.21 852 25.16 16.2 61.1 53 6.7 44.1
09:40 1023 30.21 852 25.16 17 62.5 50 6.5 43.7
09:45 1022 30.18 852 25.16 17.5 63.5 48 6.5 43.8
09:50 1022 30.18 852 25.16 16.6 61.8 52 6.9 44.4
09:55 1022 30.18 852 25.16 16.9 62.5 49 6.3 43.4
10:00 1022 30.18 852 25.16 17.7 63.8 50 7.2 45
10:05 1022 30.18 852 25.16 17.3 63.1 52 7.4 45.3
10:10 1022 30.18 852 25.16 17.1 62.8 50 6.6 43.9
10:15 1022 30.18 852 25.16 17.9 64.1 49 7 44.7
10:20 1022 30.18 852 25.16 18.5 65.3 47 7.2 45
10:25 1022 30.18 852 25.16 17.9 64.3 51 7.7 45.9
10:30 1022 30.18 852 25.16 16.8 62.2 50 6.4 43.5
10:35 1022 30.18 851 25.13 17.7 63.9 50 7.2 44.9
10:40 1022 30.18 851 25.13 18 64.4 51 7.9 46.2
10:45 1022 30.18 851 25.13 18.5 65.2 47 7 44.7
10:50 1022 30.18 851 25.13 18.5 65.2 49 7.6 45.7
10:55 1022 30.18 851 25.13 18.4 65.1 47 7 44.6
11:00 1022 30.18 851 25.13 19 66.2 46 7.1 44.8
11:05 1022 30.18 851 25.13 19.4 66.8 46 7.5 45.5
11:10 1022 30.18 851 25.13 18.5 65.2 48 7.4 45.2
11:15 1022 30.18 851 25.13 18.5 65.4 49 7.7 45.9
11:20 1022 30.18 851 25.13 18 64.3 50 7.4 45.3
11:25 1022 30.18 851 25.13 18.5 65.2 46 6.8 44.2
11:30 1022 30.18 851 25.13 19.2 66.5 47 7.9 46.2
11:35 1022 30.18 851 25.13 19 66.2 47 7.6 45.7
11:40 1022 30.18 851 25.13 19.5 67.1 45 7.4 45.4
11:45 1022 30.18 851 25.13 19.4 67 48 8.4 47
11:50 1022 30.18 851 25.13 19.2 66.5 46 7.5 45.6
11:55 1022 30.18 851 25.13 19.9 67.8 46 8 46.3
12:00 1022 30.18 851 25.13 19.7 67.5 45 7.6 45.6
12:05 1022 30.18 851 25.13 20.2 68.4 45 8 46.4
12:10 1022 30.18 851 25.13 20.6 69 45 8.3 47
12:15 1022 30.18 851 25.13 19.9 67.8 47 8.5 47.3
12:20 1022 30.18 851 25.13 20.5 68.8 44 7.8 46
12:25 1022 30.18 851 25.13 20.2 68.3 47 8.6 47.5
12:30 1022 30.18 851 25.13 20.5 68.9 43 7.6 45.7
12:35 1022 30.18 851 25.13 20.3 68.5 44 7.6 45.8
12:40 1022 30.18 851 25.13 20.8 69.5 44 8.2 46.8
12:45 1022 30.18 851 25.13 20.6 69 42 7.3 45.1
12:50 1022 30.18 851 25.13 21.1 69.9 40 7.1 44.7
12:55 1022 30.18 851 25.13 21.1 70 41 7.5 45.4
13:00 1022 30.18 851 25.13 20.3 68.5 42 7.2 45
13:05 1021 30.15 851 25.13 20.3 68.5 40 6.3 43.3
13:10 1021 30.15 851 25.13 20.5 68.8 38 5.8 42.5
13:15 1021 30.15 851 25.13 21.5 70.6 37 6.3 43.4
13:20 1021 30.15 851 25.13 21.4 70.5 38 6.6 43.9
13:25 1021 30.15 851 25.13 21.7 71.1 36 6.3 43.4
13:30 1021 30.15 850 25.1 21 69.8 39 6.7 44.1
13:35 1021 30.15 850 25.1 21.6 70.9 37 6.3 43.4
13:40 1021 30.15 850 25.1 20.6 69 39 6.3 43.4
13:45 1021 30.15 850 25.1 21 69.7 37 6 42.8
13:50 1021 30.15 850 25.1 22.2 71.9 35 6 42.8
13:55 1021 30.15 850 25.1 22.3 72.1 34 5.7 42.3
14:00 1021 30.15 850 25.1 22.3 72.2 32 5.1 41.2
14:05 1021 30.15 850 25.1 22.2 71.9 32 4.9 40.9
14:10 1021 30.15 850 25.1 21.5 70.6 33 4.5 40.1
14:15 1021 30.15 850 25.1 21.8 71.2 32 4.7 40.5
14:20 1021 30.15 850 25.1 22.8 73 30 4.4 39.9
14:25 1021 30.15 850 25.1 22.7 72.8 31 4.9 40.9
14:30 1021 30.15 850 25.1 21.9 71.3 31 4 39.1
14:35 1021 30.15 850 25.1 21.5 70.6 31 3.7 38.7
14:40 1021 30.15 850 25.1 21.4 70.6 31 3.8 38.9
14:45 1021 30.15 850 25.1 21.8 71.3 31 4.2 39.6
14:50 1021 30.15 850 25.1 21.6 70.9 33 4.9 40.8
14:55 1021 30.15 850 25.1 22.2 71.9 31 4.2 39.6
15:00 1021 30.15 850 25.1 24 75.2 29 5 41
15:05 1021 30.15 850 25.1 24.1 75.4 30 5.5 41.8
15:10 1021 30.15 850 25.1 23.8 74.8 29 4.8 40.6
15:15 1021 30.15 850 25.1 23.7 74.7 29 4.9 40.9
15:20 1021 30.15 850 25.1 23.8 74.9 28 4.7 40.4
15:25 1021 30.15 850 25.1 23.2 73.7 30 4.7 40.4
15:30 1021 30.15 850 25.1 22.8 73.1 30 4.4 39.9
15:35 1021 30.15 850 25.1 22.8 73 31 4.9 40.8
15:40 1021 30.15 850 25.1 23.2 73.7 30 4.7 40.5
15:45 1020 30.12 850 25.1 23.8 74.9 29 5 41
15:50 1020 30.12 850 25.1 23.8 74.9 29 4.9 40.8
15:55 1021 30.15 850 25.1 24 75.2 29 5.1 41.1
16:00 1021 30.15 850 25.1 24 75.3 27 4.4 39.9
16:05 1021 30.15 850 25.1 23.9 75.1 28 4.4 39.8
16:10 1021 30.15 850 25.1 24 75.3 28 4.4 39.9
16:15 1020 30.12 850 25.1 24.3 75.7 26 4.1 39.3
16:20 1021 30.15 850 25.1 22.8 73.1 29 4.2 39.5
16:25 1021 30.15 850 25.1 22.4 72.3 31 4.7 40.5
16:30 1020 30.12 850 25.1 21.6 70.9 33 4.7 40.4
16:35 1020 30.12 850 25.1 21.7 71.1 34 5.3 41.6
16:40 1020 30.12 850 25.1 21.5 70.6 35 5.6 42.1
16:45 1020 30.12 850 25.1 21 69.8 37 5.8 42.4
16:50 1020 30.12 850 25.1 20.1 68.3 38 5.7 42.2
16:55 1020 30.12 850 25.1 20.2 68.3 37 5.1 41.2
17:00 1020 30.12 849 25.07 20.5 68.9 36 5.2 41.4
17:05 1020 30.12 849 25.07 20.7 69.2 36 5.2 41.4
17:10 1020 30.12 849 25.07 20.6 69.1 37 5.6 42
17:15 1020 30.12 849 25.07 20.6 69.1 36 5.3 41.5
17:20 1020 30.12 849 25.07 20.5 68.9 37 5.7 42.2
17:25 1020 30.12 850 25.1 20.8 69.4 37 5.5 42
17:30 1020 30.12 850 25.1 20.7 69.2 36 5.2 41.4
17:35 1020 30.12 850 25.1 20.7 69.3 35 4.9 40.9
17:40 1020 30.12 850 25.1 20.9 69.5 35 5.2 41.3
17:45 1020 30.12 849 25.07 20.7 69.2 35 5 41.1
17:50 1020 30.12 849 25.07 20.6 69 37 5.4 41.7
17:55 1020 30.12 849 25.07 20.5 68.9 36 5.3 41.5
18:00 1020 30.12 849 25.07 20.5 68.9 37 5.3 41.6
18:05 1020 30.12 849 25.07 20.6 69.2 36 5.4 41.7
18:10 1020 30.12 850 25.1 20.7 69.3 35 5 41
18:15 1020 30.12 850 25.1 20.5 68.8 36 5.2 41.4
18:20 1020 30.12 850 25.1 20.4 68.8 37 5.4 41.7
18:25 1020 30.12 850 25.1 20.3 68.5 38 5.6 42.1
18:30 1020 30.12 850 25.1 20 68 38 5.4 41.7
18:35 1020 30.12 850 25.1 19.8 67.6 37 4.8 40.6
18:40 1020 30.12 850 25.1 19.8 67.6 37 4.9 40.9
18:45 1021 30.15 850 25.1 19.8 67.6 38 5.3 41.6
18:50 1021 30.15 850 25.1 19.6 67.2 40 5.7 42.3
18:55 1021 30.15 850 25.1 19.4 66.8 41 5.8 42.5
19:00 1021 30.15 850 25.1 19.3 66.7 40 5.6 42.1
19:05 1021 30.15 850 25.1 19.2 66.5 41 5.7 42.3
19:10 1021 30.15 850 25.1 19 66.3 42 5.9 42.5
19:15 1021 30.15 850 25.1 18.9 66 42 5.9 42.6
19:20 1021 30.15 850 25.1 18.7 65.7 42 5.9 42.6
19:25 1021 30.15 850 25.1 18.6 65.5 44 6.2 43.1
19:30 1021 30.15 850 25.1 18.4 65.1 45 6.5 43.7
19:35 1021 30.15 850 25.1 18 64.5 46 6.5 43.7
19:40 1021 30.15 850 25.1 17.8 64 46 6.2 43.2
19:45 1021 30.15 850 25.1 17.6 63.6 46 6 42.8
19:50 1021 30.15 850 25.1 17.5 63.5 47 6.3 43.3
19:55 1021 30.15 850 25.1 17.3 63.2 49 6.6 43.8
20:00 1021 30.15 850 25.1 17.1 62.8 49 6.5 43.7
20:05 1021 30.15 850 25.1 17 62.5 50 6.6 43.9
20:10 1021 30.15 850 25.1 16.8 62.3 50 6.4 43.6
20:15 1021 30.15 850 25.1 16.7 62.1 51 6.6 43.8
20:20 1021 30.15 850 25.1 16.5 61.7 52 6.8 44.2
20:25 1021 30.15 850 25.1 16.3 61.3 53 6.6 43.9
20:30 1021 30.15 850 25.1 16.1 61 53 6.7 44
20:35 1021 30.15 851 25.13 16 60.7 54 6.7 44
20:40 1021 30.15 851 25.13 15.9 60.6 54 6.7 44
20:45 1021 30.15 851 25.13 15.8 60.4 53 6.4 43.6
20:50 1021 30.15 851 25.13 15.8 60.4 53 6.4 43.5
20:55 1021 30.15 851 25.13 15.8 60.4 53 6.4 43.6
21:00 1021 30.15 851 25.13 15.7 60.3 54 6.4 43.6
21:05 1021 30.15 851 25.13 15.7 60.2 54 6.4 43.6
21:10 1021 30.15 851 25.13 15.7 60.2 53 6.3 43.3
21:15 1021 30.15 851 25.13 15.8 60.5 52 6.2 43.2
21:20 1021 30.15 851 25.13 15.8 60.4 54 6.5 43.6
21:25 1021 30.15 851 25.13 15.6 60.1 54 6.4 43.6
21:30 1022 30.18 851 25.13 15.5 59.9 55 6.5 43.7
21:35 1022 30.18 851 25.13 15.5 59.8 55 6.6 43.8
21:40 1022 30.18 851 25.13 15.4 59.7 55 6.5 43.8
21:45 1022 30.18 851 25.13 15.4 59.7 55 6.5 43.7
21:50 1022 30.18 851 25.13 15.5 59.8 55 6.5 43.7
21:55 1022 30.18 851 25.13 15.5 59.9 55 6.6 43.9
22:00 1022 30.18 851 25.13 15.5 59.9 55 6.6 43.8
22:05 1022 30.18 851 25.13 15.4 59.8 56 6.7 44
22:10 1022 30.18 851 25.13 15.4 59.7 56 6.7 44
22:15 1022 30.18 851 25.13 15.3 59.6 56 6.7 44
22:20 1022 30.18 851 25.13 15.3 59.5 56 6.6 44
22:25 1022 30.18 851 25.13 15.3 59.5 56 6.8 44.2
22:30 1022 30.18 851 25.13 15.2 59.4 57 6.7 44.1
22:35 1022 30.18 851 25.13 15.2 59.3 57 6.8 44.2
22:40 1022 30.18 851 25.13 15 59.1 57 6.8 44.2
22:45 1022 30.18 851 25.13 15 58.9 58 6.7 44.1
22:50 1021 30.15 851 25.13 15 59 57 6.7 44.1
22:55 1021 30.15 851 25.13 15 58.9 57 6.6 43.8
23:00 1021 30.15 851 25.13 15 59 57 6.6 43.9
23:05 1021 30.15 851 25.13 14.9 58.9 57 6.6 43.9
23:10 1021 30.15 851 25.13 14.9 58.8 57 6.6 43.8
23:15 1021 30.15 851 25.13 14.8 58.7 57 6.4 43.6
23:20 1021 30.15 851 25.13 14.9 58.8 56 6.3 43.4
23:25 1021 30.15 851 25.13 14.9 58.7 56 6.3 43.4
23:30 1021 30.15 851 25.13 14.8 58.6 56 6.3 43.3
23:35 1021 30.15 851 25.13 14.8 58.6 56 6.2 43.1
23:40 1021 30.15 850 25.1 14.8 58.6 56 6.3 43.3
23:45 1021 30.15 851 25.13 14.7 58.5 58 6.5 43.7
23:50 1021 30.15 850 25.1 14.6 58.2 58 6.6 43.8
23:55 1021 30.15 850 25.1 14.5 58.1 59 6.6 43.8
24:00 1021 30.15 850 25.1 14.5 58.1 59 6.7 44